createdAt,value
2023-03-14T00:00:13.000Z,984.1
2023-03-14T00:01:25.000Z,984.1
2023-03-14T00:02:37.000Z,984.1
2023-03-14T00:03:50.000Z,984.1
2023-03-14T00:05:02.000Z,984.1
2023-03-14T00:06:13.000Z,984
2023-03-14T00:07:24.000Z,984.1
2023-03-14T00:08:36.000Z,984
2023-03-14T00:09:49.000Z,984
2023-03-14T00:11:01.000Z,984
2023-03-14T00:12:13.000Z,984.1
2023-03-14T00:13:25.000Z,984.1
2023-03-14T00:14:37.000Z,984.1
2023-03-14T00:15:49.000Z,984.1
2023-03-14T00:17:02.000Z,984.1
2023-03-14T00:18:14.000Z,984.1
2023-03-14T00:19:26.000Z,984.1
2023-03-14T00:20:38.000Z,984
2023-03-14T00:21:50.000Z,984
2023-03-14T00:23:02.000Z,984
2023-03-14T00:24:14.000Z,984
2023-03-14T00:25:26.000Z,983.9
2023-03-14T00:26:38.000Z,983.9
2023-03-14T00:27:50.000Z,983.9
2023-03-14T00:29:03.000Z,983.9
2023-03-14T00:30:15.000Z,983.9
2023-03-14T00:31:26.000Z,984
2023-03-14T00:32:37.000Z,984.1
2023-03-14T00:33:48.000Z,984.2
2023-03-14T00:35:00.000Z,984.3
2023-03-14T00:36:12.000Z,984.3
2023-03-14T00:37:24.000Z,984.4
2023-03-14T00:38:36.000Z,984.4
2023-03-14T00:39:48.000Z,984.5
2023-03-14T00:41:00.000Z,984.4
2023-03-14T00:42:13.000Z,984.3
2023-03-14T00:43:25.000Z,984.4
2023-03-14T00:44:37.000Z,984.4
2023-03-14T00:45:49.000Z,984.5
2023-03-14T00:47:38.897Z,984.4
2023-03-14T00:48:14.000Z,984.5
2023-03-14T00:49:26.000Z,984.5
2023-03-14T00:50:37.000Z,984.5
2023-03-14T00:51:49.000Z,984.3
2023-03-14T00:53:01.000Z,984.4
2023-03-14T00:54:14.000Z,984.3
2023-03-14T00:55:26.000Z,984.3
2023-03-14T00:56:38.000Z,984.4
2023-03-14T00:57:50.000Z,984.4
2023-03-14T00:59:01.000Z,984.5
2023-03-14T01:00:12.000Z,984.6
2023-03-14T01:01:24.000Z,984.6
2023-03-14T01:02:35.000Z,984.7
2023-03-14T01:03:47.000Z,984.7
2023-03-14T01:04:59.000Z,984.7
2023-03-14T01:06:11.000Z,984.8
2023-03-14T01:08:01.136Z,984.8
2023-03-14T01:08:36.000Z,984.8
2023-03-14T01:09:48.000Z,984.7
2023-03-14T01:11:00.000Z,984.7
2023-03-14T01:12:12.000Z,984.8
2023-03-14T01:13:25.000Z,984.8
2023-03-14T01:14:37.000Z,984.9
2023-03-14T01:15:49.000Z,984.9
2023-03-14T01:17:01.000Z,984.9
2023-03-14T01:18:12.000Z,984.9
2023-03-14T01:19:24.000Z,985
2023-03-14T01:20:37.000Z,984.9
2023-03-14T01:21:49.000Z,984.9
2023-03-14T01:23:01.000Z,984.8
2023-03-14T01:24:13.000Z,984.8
2023-03-14T01:25:25.000Z,984.8
2023-03-14T01:26:37.000Z,984.8
2023-03-14T01:27:48.000Z,984.8
2023-03-14T01:29:00.000Z,984.8
2023-03-14T01:30:12.000Z,984.8
2023-03-14T01:31:24.000Z,984.8
2023-03-14T01:32:37.000Z,984.8
2023-03-14T01:33:49.000Z,984.8
2023-03-14T01:35:01.000Z,984.8
2023-03-14T01:36:13.000Z,984.8
2023-03-14T01:37:25.000Z,984.8
2023-03-14T01:39:15.044Z,984.9
2023-03-14T01:39:50.000Z,984.9
2023-03-14T01:41:02.000Z,984.8
2023-03-14T01:42:14.000Z,984.8
2023-03-14T01:43:25.000Z,984.8
2023-03-14T01:44:37.000Z,984.8
2023-03-14T01:45:50.000Z,984.7
2023-03-14T01:47:02.000Z,984.6
2023-03-14T01:48:14.000Z,984.6
2023-03-14T01:49:26.000Z,984.6
2023-03-14T01:50:38.000Z,984.5
2023-03-14T01:51:50.000Z,984.6
2023-03-14T01:53:01.000Z,984.6
2023-03-14T01:54:13.000Z,984.5
2023-03-14T01:55:25.000Z,984.5
2023-03-14T01:56:37.000Z,984.5
2023-03-14T01:57:50.000Z,984.4
2023-03-14T01:59:02.000Z,984.4
2023-03-14T02:00:14.000Z,984.3
2023-03-14T02:01:26.000Z,984.3
2023-03-14T02:02:38.000Z,984.4
2023-03-14T02:03:50.000Z,984.2
2023-03-14T02:05:03.000Z,984.2
2023-03-14T02:06:15.000Z,984.1
2023-03-14T02:07:27.000Z,984.2
2023-03-14T02:08:38.000Z,984.1
2023-03-14T02:09:50.000Z,984.1
2023-03-14T02:11:03.000Z,984.1
2023-03-14T02:12:15.000Z,984.1
2023-03-14T02:13:27.000Z,984.1
2023-03-14T02:14:39.000Z,984.1
2023-03-14T02:15:51.000Z,984
2023-03-14T02:17:40.092Z,984
2023-03-14T02:18:14.000Z,984
2023-03-14T02:19:26.000Z,984
2023-03-14T02:20:37.000Z,983.9
2023-03-14T02:21:49.000Z,983.9
2023-03-14T02:23:01.000Z,983.8
2023-03-14T02:24:14.000Z,983.8
2023-03-14T02:25:26.000Z,983.8
2023-03-14T02:26:38.000Z,983.7
2023-03-14T02:27:50.000Z,983.7
2023-03-14T02:29:02.000Z,983.7
2023-03-14T02:30:52.162Z,983.7
2023-03-14T02:31:27.000Z,983.7
2023-03-14T02:32:39.000Z,983.6
2023-03-14T02:33:51.000Z,983.7
2023-03-14T02:35:03.000Z,983.6
2023-03-14T02:36:15.000Z,983.7
2023-03-14T02:37:27.000Z,983.7
2023-03-14T02:38:39.000Z,983.7
2023-03-14T02:39:51.000Z,983.7
2023-03-14T02:41:03.000Z,983.7
2023-03-14T02:42:14.000Z,983.7
2023-03-14T02:43:26.000Z,983.7
2023-03-14T02:44:37.000Z,983.7
2023-03-14T02:45:48.000Z,983.7
2023-03-14T02:47:00.000Z,983.7
2023-03-14T02:48:12.000Z,983.7
2023-03-14T02:50:02.233Z,983.6
2023-03-14T02:50:37.000Z,983.7
2023-03-14T02:51:49.000Z,983.7
2023-03-14T02:53:01.000Z,983.7
2023-03-14T02:54:13.000Z,983.9
2023-03-14T02:55:26.000Z,983.7
2023-03-14T02:56:38.000Z,983.8
2023-03-14T02:57:50.000Z,983.8
2023-03-14T02:59:02.000Z,983.8
2023-03-14T03:00:14.000Z,983.7
2023-03-14T03:01:26.000Z,983.7
2023-03-14T03:02:38.000Z,983.7
2023-03-14T03:03:50.000Z,983.7
2023-03-14T03:05:02.000Z,983.6
2023-03-14T03:06:14.000Z,983.7
2023-03-14T03:07:26.000Z,983.7
2023-03-14T03:08:39.000Z,983.6
2023-03-14T03:09:50.000Z,983.7
2023-03-14T03:11:01.000Z,983.8
2023-03-14T03:12:13.000Z,983.7
2023-03-14T03:13:25.000Z,983.7
2023-03-14T03:14:38.000Z,983.7
2023-03-14T03:15:50.000Z,983.7
2023-03-14T03:17:02.000Z,983.9
2023-03-14T03:18:14.000Z,983.8
2023-03-14T03:19:26.000Z,983.7
2023-03-14T03:20:39.000Z,983.6
2023-03-14T03:21:51.000Z,983.7
2023-03-14T03:23:03.000Z,983.6
2023-03-14T03:24:15.000Z,983.6
2023-03-14T03:25:27.000Z,983.6
2023-03-14T03:26:38.000Z,983.6
2023-03-14T03:27:51.000Z,983.6
2023-03-14T03:29:03.000Z,983.5
2023-03-14T03:30:15.000Z,983.6
2023-03-14T03:31:27.000Z,983.5
2023-03-14T03:32:39.000Z,983.5
2023-03-14T03:33:52.000Z,983.4
2023-03-14T03:35:04.000Z,983.4
2023-03-14T03:36:16.000Z,983.3
2023-03-14T03:37:28.000Z,983.4
2023-03-14T03:38:40.000Z,983.3
2023-03-14T03:39:53.000Z,983.2
2023-03-14T03:41:05.000Z,983.2
2023-03-14T03:42:16.000Z,983.1
2023-03-14T03:43:28.000Z,983.2
2023-03-14T03:44:40.000Z,983.2
2023-03-14T03:45:52.000Z,983.3
2023-03-14T03:47:05.000Z,983.3
2023-03-14T03:48:17.000Z,983.2
2023-03-14T03:49:29.000Z,983.3
2023-03-14T03:50:41.000Z,983.2
2023-03-14T03:51:53.000Z,983.3
2023-03-14T03:53:06.000Z,983.2
2023-03-14T03:54:18.000Z,983.2
2023-03-14T03:55:30.000Z,983.2
2023-03-14T03:56:42.000Z,983.2
2023-03-14T03:57:53.000Z,983.2
2023-03-14T03:59:43.136Z,983.2
2023-03-14T04:00:18.000Z,983.2
2023-03-14T04:01:30.000Z,983.2
2023-03-14T04:02:42.000Z,983.2
2023-03-14T04:03:54.000Z,983.2
2023-03-14T04:05:06.000Z,983.2
2023-03-14T04:06:19.000Z,983.2
2023-03-14T04:07:31.000Z,983.1
2023-03-14T04:08:43.000Z,983.2
2023-03-14T04:09:55.000Z,983.3
2023-03-14T04:11:07.000Z,983.2
2023-03-14T04:12:20.000Z,983.2
2023-03-14T04:13:31.000Z,983.2
2023-03-14T04:14:43.000Z,983.2
2023-03-14T04:15:55.000Z,983.3
2023-03-14T04:17:07.000Z,983.2
2023-03-14T04:18:19.000Z,983.2
2023-03-14T04:19:32.000Z,983.3
2023-03-14T04:20:44.000Z,983.2
2023-03-14T04:21:56.000Z,983.3
2023-03-14T04:23:08.000Z,983.2
2023-03-14T04:24:58.064Z,983.2
2023-03-14T04:25:33.000Z,983.1
2023-03-14T04:26:45.000Z,983
2023-03-14T04:27:57.000Z,983
2023-03-14T04:29:08.000Z,983
2023-03-14T04:30:20.000Z,983
2023-03-14T04:31:33.000Z,982.9
2023-03-14T04:32:45.000Z,983
2023-03-14T04:33:57.000Z,982.9
2023-03-14T04:35:09.000Z,982.8
2023-03-14T04:36:21.000Z,982.9
2023-03-14T04:37:33.000Z,982.8
2023-03-14T04:38:46.000Z,982.9
2023-03-14T04:39:58.000Z,982.8
2023-03-14T04:41:10.000Z,982.8
2023-03-14T04:42:22.000Z,982.8
2023-03-14T04:43:34.000Z,982.8
2023-03-14T04:44:46.000Z,982.7
2023-03-14T04:45:58.000Z,982.7
2023-03-14T04:47:10.000Z,982.7
2023-03-14T04:48:22.000Z,982.7
2023-03-14T04:49:34.000Z,982.7
2023-03-14T04:50:47.000Z,982.7
2023-03-14T04:51:59.000Z,982.5
2023-03-14T04:53:11.000Z,982.5
2023-03-14T04:54:23.000Z,982.6
2023-03-14T04:55:35.000Z,982.6
2023-03-14T04:56:47.000Z,982.6
2023-03-14T04:58:00.000Z,982.6
2023-03-14T04:59:12.000Z,982.6
2023-03-14T05:00:23.000Z,982.6
2023-03-14T05:01:35.000Z,982.6
2023-03-14T05:02:47.000Z,982.5
2023-03-14T05:04:00.000Z,982.4
2023-03-14T05:05:12.000Z,982.4
2023-03-14T05:06:24.000Z,982.4
2023-03-14T05:07:36.000Z,982.4
2023-03-14T05:08:48.000Z,982.4
2023-03-14T05:10:01.000Z,982.4
2023-03-14T05:11:13.000Z,982.4
2023-03-14T05:12:25.000Z,982.4
2023-03-14T05:13:37.000Z,982.3
2023-03-14T05:14:49.000Z,982.3
2023-03-14T05:16:00.000Z,982.3
2023-03-14T05:17:13.000Z,982.2
2023-03-14T05:18:25.000Z,982.3
2023-03-14T05:19:37.000Z,982.2
2023-03-14T05:20:49.000Z,982.2
2023-03-14T05:22:01.000Z,982.1
2023-03-14T05:23:14.000Z,982.1
2023-03-14T05:24:26.000Z,982.1
2023-03-14T05:25:38.000Z,982
2023-03-14T05:26:50.000Z,982.2
2023-03-14T05:28:02.000Z,982.2
2023-03-14T05:29:14.000Z,982.2
2023-03-14T05:30:27.000Z,982.2
2023-03-14T05:31:38.000Z,982.2
2023-03-14T05:32:50.000Z,982.2
2023-03-14T05:34:02.000Z,982.2
2023-03-14T05:35:14.000Z,982.1
2023-03-14T05:36:27.000Z,982.2
2023-03-14T05:37:39.000Z,982.3
2023-03-14T05:38:51.000Z,982.3
2023-03-14T05:40:03.000Z,982.2
2023-03-14T05:41:15.000Z,982.2
2023-03-14T05:42:28.000Z,982.2
2023-03-14T05:43:40.000Z,982.2
2023-03-14T05:44:52.000Z,982.2
2023-03-14T05:46:04.000Z,982.3
2023-03-14T05:47:15.000Z,982.3
2023-03-14T05:48:27.000Z,982.2
2023-03-14T05:49:40.000Z,982.2
2023-03-14T05:50:52.000Z,982.2
2023-03-14T05:52:04.000Z,982.3
2023-03-14T05:53:16.000Z,982.3
2023-03-14T05:54:28.000Z,982.3
2023-03-14T05:55:41.000Z,982.3
2023-03-14T05:57:30.451Z,982.4
2023-03-14T05:58:42.647Z,982.3
2023-03-14T05:59:17.000Z,982.4
2023-03-14T06:00:29.000Z,982.5
2023-03-14T06:01:41.000Z,982.4
2023-03-14T06:02:53.000Z,982.4
2023-03-14T06:04:05.000Z,982.4
2023-03-14T06:05:17.000Z,982.4
2023-03-14T06:06:29.000Z,982.4
2023-03-14T06:07:41.000Z,982.4
2023-03-14T06:08:54.000Z,982.2
2023-03-14T06:10:06.000Z,982.3
2023-03-14T06:11:18.000Z,982.3
2023-03-14T06:12:30.000Z,982.3
2023-03-14T06:13:42.000Z,982.3
2023-03-14T06:14:55.000Z,982.3
2023-03-14T06:16:07.000Z,982.3
2023-03-14T06:17:19.000Z,982.2
2023-03-14T06:18:30.000Z,982.3
2023-03-14T06:19:42.000Z,982.2
2023-03-14T06:20:54.000Z,982.2
2023-03-14T06:22:06.000Z,982.2
2023-03-14T06:23:18.000Z,982.2
2023-03-14T06:24:30.000Z,982.2
2023-03-14T06:25:42.000Z,982.2
2023-03-14T06:26:54.000Z,982.3
2023-03-14T06:28:07.000Z,982.3
2023-03-14T06:29:19.000Z,982.2
2023-03-14T06:30:31.000Z,982.3
2023-03-14T06:31:43.000Z,982.3
2023-03-14T06:32:55.000Z,982.3
2023-03-14T06:34:08.000Z,982.3
2023-03-14T06:35:20.000Z,982.3
2023-03-14T06:36:32.000Z,982.3
2023-03-14T06:37:43.000Z,982.4
2023-03-14T06:38:55.000Z,982.3
2023-03-14T06:40:07.000Z,982.3
2023-03-14T06:41:20.000Z,982.3
2023-03-14T06:42:32.000Z,982.4
2023-03-14T06:43:44.000Z,982.4
2023-03-14T06:44:56.000Z,982.5
2023-03-14T06:46:08.000Z,982.5
2023-03-14T06:47:21.000Z,982.5
2023-03-14T06:54:34.000Z,982.6
2023-03-14T06:55:45.000Z,982.6
2023-03-14T06:56:56.000Z,982.6
2023-03-14T06:58:07.000Z,982.5
2023-03-14T06:59:18.000Z,982.6
2023-03-14T07:00:31.000Z,982.6
2023-03-14T07:01:43.000Z,982.8
2023-03-14T07:02:55.000Z,982.7
2023-03-14T07:04:07.000Z,982.7
2023-03-14T07:05:19.000Z,982.6
2023-03-14T07:06:32.000Z,982.6
2023-03-14T07:07:44.000Z,982.7
2023-03-14T07:08:56.000Z,982.6
2023-03-14T07:10:08.000Z,982.6
2023-03-14T07:11:19.000Z,982.6
2023-03-14T07:12:31.000Z,982.5
2023-03-14T07:13:43.000Z,982.5
2023-03-14T07:14:55.000Z,982.5
2023-03-14T07:16:07.000Z,982.6
2023-03-14T07:17:19.000Z,982.6
2023-03-14T07:18:31.000Z,982.6
2023-03-14T07:19:44.000Z,982.6
2023-03-14T07:20:56.000Z,982.6
2023-03-14T07:22:08.000Z,982.6
2023-03-14T07:23:57.958Z,982.5
2023-03-14T07:24:32.000Z,982.6
2023-03-14T07:25:45.000Z,982.5
2023-03-14T07:26:57.000Z,982.5
2023-03-14T07:28:08.000Z,982.6
2023-03-14T07:29:20.000Z,982.6
2023-03-14T07:30:32.000Z,982.6
2023-03-14T07:31:44.000Z,982.6
2023-03-14T07:32:57.000Z,982.6
2023-03-14T07:34:09.000Z,982.7
2023-03-14T07:35:21.000Z,982.7
2023-03-14T07:36:32.000Z,982.7
2023-03-14T07:37:43.000Z,982.7
2023-03-14T07:38:56.000Z,982.6
2023-03-14T07:40:08.000Z,982.6
2023-03-14T07:41:57.767Z,982.7
2023-03-14T07:42:32.000Z,982.6
2023-03-14T07:43:44.000Z,982.6
2023-03-14T07:44:57.000Z,982.6
2023-03-14T07:46:09.000Z,982.5
2023-03-14T07:47:21.000Z,982.5
2023-03-14T07:48:33.000Z,982.5
2023-03-14T07:49:45.000Z,982.5
2023-03-14T07:50:57.000Z,982.5
2023-03-14T07:52:10.000Z,982.6
2023-03-14T07:53:58.640Z,982.5
2023-03-14T07:54:33.000Z,982.5
2023-03-14T07:55:45.000Z,982.6
2023-03-14T07:56:57.000Z,982.5
2023-03-14T07:58:10.000Z,982.4
2023-03-14T07:59:22.000Z,982.5
2023-03-14T08:00:34.000Z,982.5
2023-03-14T08:01:46.000Z,982.5
2023-03-14T08:02:58.000Z,982.5
2023-03-14T08:04:11.000Z,982.6
2023-03-14T08:05:23.000Z,982.5
2023-03-14T08:06:35.000Z,982.5
2023-03-14T08:07:47.000Z,982.4
2023-03-14T08:08:58.000Z,982.5
2023-03-14T08:10:10.000Z,982.6
2023-03-14T08:11:23.000Z,982.6
2023-03-14T08:12:35.000Z,982.6
2023-03-14T08:13:47.000Z,982.5
2023-03-14T08:14:59.000Z,982.6
2023-03-14T08:16:11.000Z,982.5
2023-03-14T08:17:24.000Z,982.5
2023-03-14T08:18:36.000Z,982.6
2023-03-14T08:19:48.000Z,982.6
2023-03-14T08:21:00.000Z,982.5
2023-03-14T08:22:12.000Z,982.4
2023-03-14T08:23:24.000Z,982.4
2023-03-14T08:24:36.000Z,982.5
2023-03-14T08:25:48.000Z,982.5
2023-03-14T08:27:00.000Z,982.4
2023-03-14T08:28:12.000Z,982.4
2023-03-14T08:29:24.000Z,982.5
2023-03-14T08:30:37.000Z,982.4
2023-03-14T08:31:49.000Z,982.5
2023-03-14T08:33:01.000Z,982.4
2023-03-14T08:34:50.954Z,982.4
2023-03-14T08:35:25.000Z,982.4
2023-03-14T08:37:15.332Z,982.4
2023-03-14T08:37:50.000Z,982.4
2023-03-14T08:39:02.000Z,982.4
2023-03-14T08:40:13.000Z,982.3
2023-03-14T08:41:25.000Z,982.4
2023-03-14T08:42:37.000Z,982.5
2023-03-14T08:43:50.000Z,982.4
2023-03-14T08:45:02.000Z,982.4
2023-03-14T08:46:14.000Z,982.5
2023-03-14T08:47:26.000Z,982.4
2023-03-14T08:48:38.000Z,982.4
2023-03-14T08:49:51.000Z,982.6
2023-03-14T08:51:03.000Z,982.4
2023-03-14T08:52:15.000Z,982.4
2023-03-14T08:53:27.000Z,982.5
2023-03-14T08:54:39.000Z,982.4
2023-03-14T08:55:50.000Z,982.5
2023-03-14T08:57:03.000Z,982.5
2023-03-14T08:58:15.000Z,982.5
2023-03-14T08:59:27.000Z,982.5
2023-03-14T09:00:39.000Z,982.5
2023-03-14T09:01:51.000Z,982.5
2023-03-14T09:03:04.000Z,982.5
2023-03-14T09:04:16.000Z,982.5
2023-03-14T09:05:28.000Z,982.5
2023-03-14T09:06:40.000Z,982.5
2023-03-14T09:08:30.163Z,982.6
2023-03-14T09:09:42.357Z,982.5
2023-03-14T09:10:17.000Z,982.5
2023-03-14T09:11:28.000Z,982.5
2023-03-14T09:12:40.000Z,982.5
2023-03-14T09:13:52.000Z,982.5
2023-03-14T09:15:04.000Z,982.5
2023-03-14T09:16:17.000Z,982.7
2023-03-14T09:17:29.000Z,982.5
2023-03-14T09:18:41.000Z,982.5
2023-03-14T09:19:53.000Z,982.5
2023-03-14T09:21:05.000Z,982.5
2023-03-14T09:22:18.000Z,982.5
2023-03-14T09:23:30.000Z,982.5
2023-03-14T09:24:42.000Z,982.5
2023-03-14T09:25:54.000Z,982.5
2023-03-14T09:27:05.000Z,982.6
2023-03-14T09:28:18.000Z,982.6
2023-03-14T09:29:30.000Z,982.6
2023-03-14T09:30:42.000Z,982.6
2023-03-14T09:31:54.000Z,982.7
2023-03-14T09:33:06.000Z,982.7
2023-03-14T09:34:18.000Z,982.7
2023-03-14T09:35:31.000Z,982.7
2023-03-14T09:36:43.000Z,982.7
2023-03-14T09:37:55.000Z,982.8
2023-03-14T09:39:07.000Z,982.8
2023-03-14T09:40:19.000Z,982.9
2023-03-14T09:41:32.000Z,982.8
2023-03-14T09:42:43.000Z,982.9
2023-03-14T09:43:55.000Z,982.8
2023-03-14T09:45:07.000Z,982.8
2023-03-14T09:46:57.135Z,982.9
2023-03-14T09:47:31.000Z,982.9
2023-03-14T09:49:21.506Z,982.9
2023-03-14T09:49:56.000Z,982.9
2023-03-14T09:51:08.000Z,982.9
2023-03-14T09:52:20.000Z,982.9
2023-03-14T09:53:32.000Z,983
2023-03-14T09:54:45.000Z,983.1
2023-03-14T09:55:57.000Z,983.1
2023-03-14T09:57:09.000Z,983.1
2023-03-14T09:58:20.000Z,983.2
2023-03-14T09:59:32.000Z,983.1
2023-03-14T10:00:45.000Z,983.2
2023-03-14T10:02:34.545Z,983.1
2023-03-14T10:03:09.000Z,983.1
2023-03-14T10:04:21.000Z,983.2
2023-03-14T10:05:33.000Z,983.1
2023-03-14T10:06:45.000Z,983.1
2023-03-14T10:07:58.000Z,983.1
2023-03-14T10:09:10.000Z,983.1
2023-03-14T10:10:22.000Z,983.1
2023-03-14T10:11:34.000Z,983.1
2023-03-14T10:13:24.231Z,983.1
2023-03-14T10:13:58.000Z,983
2023-03-14T10:15:10.000Z,983
2023-03-14T10:16:22.000Z,983
2023-03-14T10:17:34.000Z,983.1
2023-03-14T10:18:46.000Z,983
2023-03-14T10:19:58.000Z,983
2023-03-14T10:21:11.000Z,983
2023-03-14T10:22:23.000Z,983
2023-03-14T10:23:34.000Z,983
2023-03-14T10:24:46.000Z,983
2023-03-14T10:25:58.000Z,983
2023-03-14T10:27:11.000Z,983
2023-03-14T10:28:23.000Z,983
2023-03-14T10:29:35.000Z,983
2023-03-14T10:30:47.000Z,983
2023-03-14T10:32:37.204Z,983
2023-03-14T10:33:12.000Z,983
2023-03-14T10:34:24.000Z,983
2023-03-14T10:35:36.000Z,983
2023-03-14T10:36:48.000Z,983.1
2023-03-14T10:38:00.000Z,983.1
2023-03-14T10:39:11.000Z,983.1
2023-03-14T10:40:24.000Z,983.1
2023-03-14T10:41:36.000Z,983
2023-03-14T10:42:48.000Z,983
2023-03-14T10:44:00.000Z,983
2023-03-14T10:45:12.000Z,982.9
2023-03-14T10:46:25.000Z,983
2023-03-14T10:47:37.000Z,982.9
2023-03-14T10:48:49.000Z,982.9
2023-03-14T10:50:01.000Z,982.9
2023-03-14T10:51:13.000Z,982.8
2023-03-14T10:52:25.000Z,982.8
2023-03-14T10:53:38.000Z,982.8
2023-03-14T10:54:49.000Z,982.8
2023-03-14T10:56:01.000Z,982.7
2023-03-14T10:57:13.000Z,982.7
2023-03-14T10:58:25.000Z,982.8
2023-03-14T10:59:38.000Z,982.8
2023-03-14T11:00:50.000Z,982.7
2023-03-14T11:02:02.000Z,982.9
2023-03-14T11:03:52.046Z,982.8
2023-03-14T11:04:26.000Z,982.8
2023-03-14T11:05:39.000Z,982.9
2023-03-14T11:06:51.000Z,983
2023-03-14T11:08:03.000Z,983
2023-03-14T11:09:15.000Z,983
2023-03-14T11:10:26.000Z,983
2023-03-14T11:11:38.000Z,983
2023-03-14T11:12:51.000Z,983
2023-03-14T11:14:03.000Z,982.9
2023-03-14T11:15:15.000Z,982.9
2023-03-14T11:16:27.000Z,983
2023-03-14T11:17:39.000Z,982.9
2023-03-14T11:18:52.000Z,982.9
2023-03-14T11:20:04.000Z,983
2023-03-14T11:21:16.000Z,982.9
2023-03-14T11:22:28.000Z,983
2023-03-14T11:23:40.000Z,982.9
2023-03-14T11:24:52.000Z,983
2023-03-14T11:26:04.000Z,982.9
2023-03-14T11:27:16.000Z,983
2023-03-14T11:45:19.000Z,982.9
2023-03-14T11:48:55.000Z,982.9
2023-03-14T11:50:07.000Z,982.9
2023-03-14T11:51:20.000Z,982.9
2023-03-14T11:52:31.000Z,982.9
2023-03-14T11:53:42.000Z,983
2023-03-14T11:54:53.000Z,982.9
2023-03-14T11:56:04.000Z,982.9
2023-03-14T11:57:16.000Z,982.9
2023-03-14T11:58:27.000Z,982.9
2023-03-14T11:59:38.000Z,982.9
2023-03-14T12:00:49.000Z,982.8
2023-03-14T12:02:01.000Z,982.9
2023-03-14T12:03:14.000Z,982.8
2023-03-14T12:05:03.645Z,982.9
2023-03-14T12:05:38.000Z,982.8
2023-03-14T12:06:50.000Z,982.8
2023-03-14T12:08:02.000Z,982.9
2023-03-14T12:09:14.000Z,982.9
2023-03-14T12:10:27.000Z,982.8
2023-03-14T12:11:39.000Z,982.8
2023-03-14T12:12:50.000Z,982.8
2023-03-14T12:14:01.000Z,982.8
2023-03-14T12:15:13.000Z,982.8
2023-03-14T12:16:26.000Z,982.8
2023-03-14T12:17:38.000Z,982.8
2023-03-14T12:18:50.000Z,982.8
2023-03-14T12:20:02.000Z,982.8
2023-03-14T12:21:14.000Z,982.8
2023-03-14T12:22:27.000Z,982.8
2023-03-14T12:23:39.000Z,982.8
2023-03-14T12:24:51.000Z,982.7
2023-03-14T12:26:02.000Z,982.8
2023-03-14T12:27:13.000Z,982.8
2023-03-14T12:28:25.000Z,982.7
2023-03-14T12:29:38.000Z,982.7
2023-03-14T12:30:50.000Z,982.7
2023-03-14T12:32:02.000Z,982.7
2023-03-14T12:33:14.000Z,982.7
2023-03-14T12:34:26.000Z,982.7
2023-03-14T12:35:39.000Z,982.7
2023-03-14T12:36:51.000Z,982.6
2023-03-14T12:38:03.000Z,982.6
2023-03-14T12:39:15.000Z,982.7
2023-03-14T12:40:27.000Z,982.6
2023-03-14T12:41:39.000Z,982.6
2023-03-14T12:42:51.000Z,982.5
2023-03-14T12:44:03.000Z,982.5
2023-03-14T12:45:15.000Z,982.5
2023-03-14T12:46:27.000Z,982.5
2023-03-14T12:47:39.000Z,982.5
2023-03-14T12:48:52.000Z,982.4
2023-03-14T12:50:04.000Z,982.4
2023-03-14T12:51:15.000Z,982.4
2023-03-14T12:52:26.000Z,982.4
2023-03-14T12:53:37.000Z,982.3
2023-03-14T12:54:49.000Z,982.3
2023-03-14T12:56:01.000Z,982.4
2023-03-14T12:57:50.954Z,982.3
2023-03-14T12:58:25.000Z,982.3
2023-03-14T12:59:37.000Z,982.3
2023-03-14T13:00:50.000Z,982.3
2023-03-14T13:02:02.000Z,982.3
2023-03-14T13:03:14.000Z,982.3
2023-03-14T13:04:26.000Z,982.3
2023-03-14T13:05:38.000Z,982.3
2023-03-14T13:06:50.000Z,982.3
2023-03-14T13:08:03.000Z,982.3
2023-03-14T13:09:15.000Z,982.3
2023-03-14T13:10:26.000Z,982.3
2023-03-14T13:11:38.000Z,982.2
2023-03-14T13:12:50.000Z,982.2
2023-03-14T13:14:03.000Z,982.1
2023-03-14T13:15:15.000Z,982.1
2023-03-14T13:16:27.000Z,982.1
2023-03-14T13:17:39.000Z,982
2023-03-14T13:18:50.000Z,982.1
2023-03-14T13:20:02.000Z,982.1
2023-03-14T13:21:13.000Z,982.1
2023-03-14T13:22:24.000Z,982.1
2023-03-14T13:23:36.000Z,982.1
2023-03-14T13:24:48.000Z,981.9
2023-03-14T13:26:00.000Z,982
2023-03-14T13:27:13.000Z,982
2023-03-14T13:28:25.000Z,982
2023-03-14T13:29:37.000Z,982
2023-03-14T13:30:49.000Z,982
2023-03-14T13:32:01.000Z,982
2023-03-14T13:33:14.000Z,982
2023-03-14T13:34:26.000Z,982
2023-03-14T13:35:38.000Z,982
2023-03-14T13:36:50.000Z,982
2023-03-14T13:38:01.000Z,981.9
2023-03-14T13:39:14.000Z,982
2023-03-14T13:40:26.000Z,982
2023-03-14T13:41:38.000Z,981.9
2023-03-14T13:42:50.000Z,982
2023-03-14T13:44:02.000Z,981.9
2023-03-14T13:45:14.000Z,982
2023-03-14T13:46:26.000Z,982
2023-03-14T13:47:37.000Z,981.9
2023-03-14T13:48:48.000Z,982
2023-03-14T13:50:37.272Z,982
2023-03-14T13:51:11.000Z,982
2023-03-14T13:52:24.000Z,982
2023-03-14T13:53:36.000Z,982
2023-03-14T13:54:48.000Z,982
2023-03-14T13:56:00.000Z,982
2023-03-14T13:57:12.000Z,982
2023-03-14T13:58:25.000Z,982
2023-03-14T13:59:37.000Z,982
2023-03-14T14:00:49.000Z,982
2023-03-14T14:02:01.000Z,982
2023-03-14T14:03:13.000Z,982
2023-03-14T14:04:25.000Z,982
2023-03-14T14:05:37.000Z,982.1
2023-03-14T14:07:26.879Z,982
2023-03-14T14:08:01.000Z,982
2023-03-14T14:09:13.000Z,982.1
2023-03-14T14:10:25.000Z,982.1
2023-03-14T14:11:38.000Z,982.2
2023-03-14T14:12:50.000Z,982.1
2023-03-14T14:14:01.000Z,982.1
2023-03-14T14:15:12.000Z,982.1
2023-03-14T14:16:24.000Z,982.1
2023-03-14T14:17:37.000Z,982.1
2023-03-14T14:18:49.000Z,982.2
2023-03-14T14:20:01.000Z,982.2
2023-03-14T14:21:13.000Z,982.2
2023-03-14T14:22:25.000Z,982.2
2023-03-14T14:23:37.000Z,982.2
2023-03-14T14:24:49.000Z,982.2
2023-03-14T14:26:01.000Z,982.3
2023-03-14T14:27:13.000Z,982.4
2023-03-14T14:28:25.000Z,982.4
2023-03-14T14:29:37.000Z,982.4
2023-03-14T14:30:50.000Z,982.4
2023-03-14T14:32:02.000Z,982.6
2023-03-14T14:33:14.000Z,982.6
2023-03-14T14:34:26.000Z,982.6
2023-03-14T14:35:38.000Z,982.7
2023-03-14T14:36:51.000Z,982.7
2023-03-14T14:38:03.000Z,982.7
2023-03-14T14:39:14.000Z,982.8
2023-03-14T14:40:25.000Z,982.9
2023-03-14T14:41:36.000Z,982.9
2023-03-14T14:42:48.000Z,983.2
2023-03-14T14:43:59.000Z,983.5
2023-03-14T14:45:47.961Z,983.6
2023-03-14T14:46:22.000Z,983.9
2023-03-14T14:47:34.000Z,983.8
2023-03-14T14:48:46.000Z,983.9
2023-03-14T14:49:59.000Z,984.2
2023-03-14T14:51:11.000Z,984.2
2023-03-14T14:52:23.000Z,984.3
2023-03-14T14:53:35.000Z,984.5
2023-03-14T14:54:47.000Z,984.6
2023-03-14T14:56:00.000Z,984.6
2023-03-14T14:57:49.807Z,984.8
2023-03-14T14:58:24.000Z,984.8
2023-03-14T14:59:36.000Z,984.9
2023-03-14T15:00:47.000Z,985
2023-03-14T15:02:00.000Z,985.1
2023-03-14T15:03:49.751Z,985.2
2023-03-14T15:04:24.000Z,985.3
2023-03-14T15:05:36.000Z,985.4
2023-03-14T15:06:48.000Z,985.5
2023-03-14T15:08:00.000Z,985.7
2023-03-14T15:09:12.000Z,985.8
2023-03-14T15:10:23.000Z,985.8
2023-03-14T15:11:35.000Z,985.7
2023-03-14T15:12:46.000Z,986
2023-03-14T15:13:57.000Z,985.9
2023-03-14T15:15:10.000Z,986
2023-03-14T15:16:22.000Z,986
2023-03-14T15:17:34.000Z,986
2023-03-14T15:18:46.000Z,986
2023-03-14T15:19:58.000Z,986.2
2023-03-14T15:21:48.628Z,986.1
2023-03-14T15:22:23.000Z,986.2
2023-03-14T15:23:35.000Z,986.3
2023-03-14T15:24:47.000Z,986.3
2023-03-14T15:25:59.000Z,986.4
2023-03-14T15:27:11.000Z,986.5
2023-03-14T15:28:24.000Z,986.4
2023-03-14T15:29:35.000Z,986.7
2023-03-14T15:30:47.000Z,986.8
2023-03-14T15:31:59.000Z,986.7
2023-03-14T15:33:11.000Z,986.9
2023-03-14T15:34:24.000Z,986.9
2023-03-14T15:35:36.000Z,986.9
2023-03-14T15:36:48.000Z,987.2
2023-03-14T15:37:59.000Z,987.3
2023-03-14T15:39:10.000Z,987.2
2023-03-14T15:40:23.000Z,987.4
2023-03-14T15:41:35.000Z,987.3
2023-03-14T15:42:46.000Z,987.5
2023-03-14T15:43:57.000Z,987.6
2023-03-14T15:45:09.000Z,987.7
2023-03-14T15:46:22.000Z,987.7
2023-03-14T15:47:34.000Z,987.9
2023-03-14T15:48:46.000Z,988
2023-03-14T15:49:58.000Z,987.9
2023-03-14T15:51:10.000Z,988.1
2023-03-14T15:52:22.000Z,988.1
2023-03-14T15:53:35.000Z,988.1
2023-03-14T15:54:47.000Z,988.3
2023-03-14T15:55:59.000Z,988.4
2023-03-14T15:57:11.000Z,988.5
2023-03-14T15:58:23.000Z,988.5
2023-03-14T15:59:35.000Z,988.5